createdAt,value
2023-04-02T00:00:05.502Z,15.25
2023-04-02T00:03:14.239Z,15.30
2023-04-02T00:06:33.483Z,15.28
2023-04-02T00:09:37.762Z,15.21
2023-04-02T00:12:39.384Z,15.26
2023-04-02T00:15:43.820Z,15.10
2023-04-02T00:18:53.657Z,15.17
2023-04-02T00:21:57.178Z,14.97
2023-04-02T00:25:02.516Z,15.06
2023-04-02T00:28:04.752Z,15.03
2023-04-02T00:31:10.522Z,15.13
2023-04-02T00:34:26.088Z,15.11
2023-04-02T00:37:38.675Z,15.00
2023-04-02T00:40:42.219Z,15.15
2023-04-02T00:43:46.806Z,15.09
2023-04-02T00:46:50.082Z,15.06
2023-04-02T00:50:00.015Z,15.10
2023-04-02T00:53:10.582Z,15.14
2023-04-02T00:56:25.780Z,15.17
2023-04-02T00:59:33.675Z,15.05
2023-04-02T01:02:40.815Z,15.16
2023-04-02T01:05:50.214Z,15.19
2023-04-02T01:09:00.549Z,15.24
2023-04-02T01:12:21.105Z,15.25
2023-04-02T01:15:33.742Z,15.14
2023-04-02T01:18:50.216Z,15.05
2023-04-02T01:22:15.771Z,15.04
2023-04-02T01:25:24.956Z,15.03
2023-04-02T01:28:49.272Z,15.04
2023-04-02T01:31:53.262Z,15.02
2023-04-02T01:34:56.163Z,15.01
2023-04-02T01:38:10.644Z,15.04
2023-04-02T01:41:23.653Z,15.05
2023-04-02T01:44:41.847Z,15.03
2023-04-02T01:47:44.143Z,15.02
2023-04-02T01:50:49.742Z,14.99
2023-04-02T01:53:51.750Z,14.93
2023-04-02T01:56:53.534Z,15.00
2023-04-02T01:59:55.602Z,15.01
2023-04-02T02:02:59.096Z,15.02
2023-04-02T02:06:02.762Z,15.05
2023-04-02T02:09:07.234Z,14.98
2023-04-02T02:12:13.666Z,14.90
2023-04-02T02:15:17.754Z,14.92
2023-04-02T02:18:23.275Z,15.02
2023-04-02T02:21:36.827Z,14.92
2023-04-02T02:24:38.971Z,14.93
2023-04-02T02:27:50.359Z,14.81
2023-04-02T02:31:02.630Z,14.76
2023-04-02T02:34:12.837Z,14.66
2023-04-02T02:37:23.190Z,14.66
2023-04-02T02:40:36.476Z,14.68
2023-04-02T02:43:41.828Z,14.65
2023-04-02T02:46:49.814Z,14.78
2023-04-02T02:49:55.510Z,14.85
2023-04-02T02:53:00.321Z,14.80
2023-04-02T02:56:05.697Z,14.79
2023-04-02T02:59:16.857Z,14.82
2023-04-02T03:02:19.038Z,14.85
2023-04-02T03:05:23.728Z,14.83
2023-04-02T03:08:43.630Z,14.90
2023-04-02T03:12:12.283Z,14.87
2023-04-02T03:15:19.625Z,14.86
2023-04-02T03:18:33.380Z,14.85
2023-04-02T03:21:43.709Z,14.73
2023-04-02T03:25:02.004Z,14.74
2023-04-02T03:28:14.429Z,14.69
2023-04-02T03:31:25.394Z,14.74
2023-04-02T03:34:53.951Z,14.71
2023-04-02T03:38:04.760Z,14.60
2023-04-02T03:41:17.005Z,14.61
2023-04-02T03:44:28.712Z,14.72
2023-04-02T03:47:47.339Z,14.79
2023-04-02T03:51:02.991Z,14.65
2023-04-02T03:54:05.213Z,14.55
2023-04-02T03:57:21.120Z,14.61
2023-04-02T04:00:41.365Z,14.60
2023-04-02T04:04:07.656Z,14.59
2023-04-02T04:07:27.884Z,14.61
2023-04-02T04:10:31.096Z,14.55
2023-04-02T04:13:59.345Z,14.55
2023-04-02T04:17:30.400Z,14.61
2023-04-02T04:20:45.985Z,14.68
2023-04-02T04:23:51.480Z,14.61
2023-04-02T04:27:33.459Z,14.61
2023-04-02T04:31:00.048Z,14.52
2023-04-02T04:34:11.177Z,14.30
2023-04-02T04:37:25.263Z,14.22
2023-04-02T04:40:36.171Z,14.24
2023-04-02T04:43:52.219Z,14.40
2023-04-02T04:46:56.874Z,14.33
2023-04-02T04:50:16.701Z,14.23
2023-04-02T04:53:27.771Z,14.13
2023-04-02T04:56:32.323Z,14.04
2023-04-02T04:59:55.320Z,14.01
2023-04-02T05:03:13.372Z,14.03
2023-04-02T05:06:44.827Z,14.14
2023-04-02T05:09:59.558Z,14.01
2023-04-02T05:13:09.281Z,14.09
2023-04-02T05:16:31.343Z,14.01
2023-04-02T05:20:00.957Z,14.02
2023-04-02T05:23:12.357Z,14.12
2023-04-02T05:26:33.622Z,14.30
2023-04-02T05:29:41.435Z,14.43
2023-04-02T05:32:47.426Z,14.47
2023-04-02T05:35:55.949Z,14.55
2023-04-02T05:38:59.572Z,14.56
2023-04-02T05:42:23.366Z,14.37
2023-04-02T05:45:37.471Z,14.46
2023-04-02T05:48:43.783Z,14.53
2023-04-02T05:51:52.382Z,14.46
2023-04-02T05:55:05.007Z,14.55
2023-04-02T06:01:37.572Z,14.68
2023-04-02T06:05:04.239Z,14.74
2023-04-02T06:08:15.654Z,14.81
2023-04-02T06:11:23.811Z,14.93
2023-04-02T06:14:26.639Z,15.05
2023-04-02T06:17:29.874Z,15.18
2023-04-02T06:20:33.004Z,15.27
2023-04-02T06:23:49.954Z,15.01
2023-04-02T06:26:59.834Z,15.11
2023-04-02T06:30:06.176Z,15.26
2023-04-02T06:33:11.718Z,15.40
2023-04-02T06:36:16.845Z,15.60
2023-04-02T06:39:24.393Z,15.80
2023-04-02T06:42:31.132Z,15.89
2023-04-02T06:46:18.123Z,15.93
2023-04-02T06:49:41.545Z,15.95
2023-04-02T06:52:51.704Z,15.85
2023-04-02T06:56:04.395Z,16.00
2023-04-02T06:59:07.817Z,16.01
2023-04-02T07:02:46.651Z,15.94
2023-04-02T07:05:48.297Z,15.97
2023-04-02T07:08:50.100Z,16.09
2023-04-02T07:11:52.819Z,16.24
2023-04-02T07:14:55.109Z,16.27
2023-04-02T07:17:59.164Z,16.44
2023-04-02T07:21:01.335Z,16.54
2023-04-02T07:24:02.981Z,16.72
2023-04-02T07:27:04.488Z,16.69
2023-04-02T07:30:07.450Z,16.82
2023-04-02T07:33:13.998Z,16.87
2023-04-02T07:36:19.322Z,17.03
2023-04-02T07:39:20.852Z,17.12
2023-04-02T07:42:22.381Z,17.08
2023-04-02T07:45:23.931Z,17.23
2023-04-02T07:48:25.681Z,17.22
2023-04-02T07:51:27.257Z,17.11
2023-04-02T07:54:30.331Z,17.16
2023-04-02T07:57:32.117Z,17.24
2023-04-02T08:00:33.740Z,17.33
2023-04-02T08:03:35.624Z,17.59
2023-04-02T08:06:37.242Z,17.79
2023-04-02T08:09:38.756Z,17.84
2023-04-02T08:12:40.521Z,17.97
2023-04-02T08:15:42.693Z,18.10
2023-04-02T08:18:46.381Z,18.18
2023-04-02T08:21:51.348Z,18.19
2023-04-02T08:24:52.958Z,18.20
2023-04-02T08:27:54.510Z,18.26
2023-04-02T08:30:56.100Z,18.58
2023-04-02T08:33:58.764Z,18.61
2023-04-02T08:37:00.592Z,18.81
2023-04-02T08:40:03.633Z,19.03
2023-04-02T08:43:30.999Z,19.33
2023-04-02T08:46:44.928Z,19.35
2023-04-02T08:49:57.653Z,19.41
2023-04-02T08:53:00.620Z,19.38
2023-04-02T08:56:17.609Z,19.25
2023-04-02T08:59:37.896Z,19.26
2023-04-02T09:02:52.990Z,19.24
2023-04-02T09:05:56.105Z,19.53
2023-04-02T09:08:58.830Z,20.08
2023-04-02T09:12:05.456Z,20.37
2023-04-02T09:15:29.474Z,20.45
2023-04-02T09:18:32.513Z,20.31
2023-04-02T09:21:40.243Z,20.13
2023-04-02T09:24:41.802Z,19.54
2023-04-02T09:27:47.972Z,19.21
2023-04-02T09:31:07.198Z,19.23
2023-04-02T09:34:47.242Z,19.07
2023-04-02T09:38:11.520Z,19.57
2023-04-02T09:41:21.009Z,20.02
2023-04-02T09:44:22.512Z,20.60
2023-04-02T09:47:27.099Z,20.58
2023-04-02T09:50:33.352Z,20.32
2023-04-02T09:53:39.891Z,20.29
2023-04-02T09:57:02.775Z,20.42
2023-04-02T10:03:31.528Z,20.62
2023-04-02T10:06:34.855Z,20.34
2023-04-02T10:09:38.456Z,20.38
2023-04-02T10:12:42.154Z,20.53
2023-04-02T10:15:49.766Z,20.19
2023-04-02T10:18:57.590Z,19.75
2023-04-02T10:22:03.046Z,19.42
2023-04-02T10:25:17.603Z,19.45
2023-04-02T10:28:33.418Z,19.98
2023-04-02T10:31:55.629Z,20.36
2023-04-02T10:35:26.384Z,20.66
2023-04-02T10:38:47.424Z,20.82
2023-04-02T10:42:35.012Z,20.25
2023-04-02T10:45:45.177Z,20.42
2023-04-02T10:48:54.334Z,20.19
2023-04-02T10:52:03.832Z,20.50
2023-04-02T10:55:18.156Z,20.70
2023-04-02T10:58:24.521Z,20.52
2023-04-02T11:01:29.721Z,20.94
2023-04-02T11:04:56.737Z,21.22
2023-04-02T11:08:20.105Z,21.32
2023-04-02T11:11:23.066Z,21.16
2023-04-02T11:14:28.283Z,21.14
2023-04-02T11:17:29.844Z,20.93
2023-04-02T11:20:49.615Z,20.90
2023-04-02T11:24:00.107Z,20.70
2023-04-02T11:27:16.966Z,20.56
2023-04-02T11:30:25.546Z,20.74
2023-04-02T11:33:37.374Z,20.61
2023-04-02T11:36:55.367Z,20.80
2023-04-02T11:39:59.239Z,20.82
2023-04-02T11:43:35.951Z,20.96
2023-04-02T11:46:42.977Z,21.03
2023-04-02T11:49:57.530Z,20.76
2023-04-02T11:53:05.298Z,20.83
2023-04-02T11:56:19.966Z,20.77
2023-04-02T11:59:36.936Z,21.50
2023-04-02T12:02:57.074Z,21.91
2023-04-02T12:06:13.209Z,22.25
2023-04-02T12:09:14.745Z,22.36
2023-04-02T12:12:29.029Z,22.40
2023-04-02T12:15:37.822Z,22.37
2023-04-02T12:18:54.150Z,21.88
2023-04-02T12:21:56.383Z,21.54
2023-04-02T12:25:15.906Z,21.11
2023-04-02T12:28:18.471Z,20.85
2023-04-02T12:31:22.779Z,20.69
2023-04-02T12:34:29.923Z,20.62
2023-04-02T12:37:31.854Z,20.47
2023-04-02T12:40:33.940Z,20.32
2023-04-02T12:43:37.943Z,20.26
2023-04-02T12:46:40.530Z,20.15
2023-04-02T12:49:43.849Z,20.01
2023-04-02T12:52:47.762Z,19.88
2023-04-02T12:55:51.480Z,19.61
2023-04-02T12:58:58.299Z,19.50
2023-04-02T13:02:02.357Z,19.64
2023-04-02T13:05:04.216Z,19.59
2023-04-02T13:08:06.032Z,19.70
2023-04-02T13:11:07.932Z,19.79
2023-04-02T13:14:19.882Z,19.75
2023-04-02T13:17:44.229Z,19.70
2023-04-02T13:21:06.274Z,19.54
2023-04-02T13:24:20.531Z,19.51
2023-04-02T13:27:22.416Z,19.46
2023-04-02T13:30:26.568Z,19.20
2023-04-02T13:33:28.043Z,18.96
2023-04-02T13:36:29.816Z,18.90
2023-04-02T13:39:31.421Z,18.78
2023-04-02T13:42:32.996Z,18.80
2023-04-02T13:45:38.574Z,18.64
2023-04-02T13:48:40.228Z,18.60
2023-04-02T13:51:47.851Z,18.59
2023-04-02T13:54:52.920Z,18.62
2023-04-02T13:57:56.514Z,18.64
2023-04-02T14:00:58.150Z,18.61
2023-04-02T14:04:00.473Z,18.60
2023-04-02T14:07:02.207Z,18.62
2023-04-02T14:10:31.483Z,18.58
2023-04-02T14:13:36.005Z,18.49
2023-04-02T14:17:19.596Z,18.53
2023-04-02T14:20:42.155Z,18.49
2023-04-02T14:24:02.672Z,18.48
2023-04-02T14:27:24.242Z,18.28
2023-04-02T14:30:56.560Z,18.22
2023-04-02T14:34:22.897Z,17.98
2023-04-02T14:37:44.633Z,17.94
2023-04-02T14:40:58.906Z,17.87
2023-04-02T14:44:04.214Z,17.85
2023-04-02T14:47:13.556Z,17.96
2023-04-02T14:50:33.177Z,18.14
2023-04-02T14:53:52.632Z,18.30
2023-04-02T14:56:59.306Z,18.28
2023-04-02T15:00:10.662Z,18.30
2023-04-02T15:03:18.337Z,18.16
2023-04-02T15:06:49.504Z,18.13
2023-04-02T15:10:12.385Z,18.09
2023-04-02T15:13:21.149Z,18.20
2023-04-02T15:16:26.676Z,18.37
2023-04-02T15:19:28.266Z,18.39
2023-04-02T15:22:42.370Z,18.34
2023-04-02T15:26:22.322Z,18.33
2023-04-02T15:29:39.184Z,18.06
2023-04-02T15:32:43.155Z,17.78
2023-04-02T15:35:51.101Z,17.65
2023-04-02T15:39:15.374Z,17.89
2023-04-02T15:42:30.530Z,18.05
2023-04-02T15:45:31.991Z,18.19
2023-04-02T15:48:42.173Z,18.21
2023-04-02T15:52:11.478Z,18.21
2023-04-02T15:55:39.561Z,18.03
2023-04-02T15:59:13.727Z,17.97
2023-04-02T16:02:37.300Z,17.99
2023-04-02T16:06:19.286Z,17.93
2023-04-02T16:09:47.906Z,17.80
2023-04-02T16:12:52.181Z,17.62
2023-04-02T16:16:03.073Z,17.59
2023-04-02T16:19:16.776Z,17.54
2023-04-02T16:22:28.989Z,17.43
2023-04-02T16:25:53.570Z,17.37
2023-04-02T16:29:13.882Z,17.20
2023-04-02T16:32:52.803Z,17.23
2023-04-02T16:36:29.991Z,17.31
2023-04-02T16:39:51.308Z,17.25
2023-04-02T16:42:58.727Z,17.30
2023-04-02T16:46:31.746Z,17.33
2023-04-02T16:50:38.010Z,17.38
2023-04-02T16:53:54.502Z,17.20
2023-04-02T16:57:31.945Z,17.25
2023-04-02T17:00:44.919Z,17.20
2023-04-02T17:04:18.324Z,17.18
2023-04-02T17:07:27.509Z,17.19
2023-04-02T17:10:33.331Z,17.19
2023-04-02T17:13:46.859Z,17.09
2023-04-02T17:16:52.412Z,16.99
2023-04-02T17:19:59.950Z,16.85
2023-04-02T17:23:03.656Z,16.60
2023-04-02T17:26:09.112Z,16.39
2023-04-02T17:29:18.973Z,16.42
2023-04-02T17:32:25.979Z,16.39
2023-04-02T17:35:48.663Z,16.36
2023-04-02T17:39:15.663Z,16.23
2023-04-02T17:42:17.099Z,16.04
2023-04-02T17:46:01.706Z,15.81
2023-04-02T17:49:17.825Z,15.70
2023-04-02T17:52:33.660Z,15.73
2023-04-02T17:56:06.066Z,15.80
2023-04-02T17:59:26.378Z,15.74
2023-04-02T18:02:36.900Z,15.57
2023-04-02T18:06:00.520Z,15.44
2023-04-02T18:09:23.986Z,15.21
2023-04-02T18:12:43.730Z,15.17
2023-04-02T18:16:15.887Z,15.11
2023-04-02T18:19:40.335Z,15.07
2023-04-02T18:22:49.222Z,14.97
2023-04-02T18:26:38.965Z,14.97
2023-04-02T18:30:00.052Z,14.97
2023-04-02T18:33:14.238Z,14.98
2023-04-02T18:36:33.308Z,15.04
2023-04-02T18:39:37.909Z,15.04
2023-04-02T18:43:11.706Z,15.06
2023-04-02T18:46:37.374Z,14.98
2023-04-02T18:49:43.468Z,14.91
2023-04-02T18:52:45.336Z,14.88
2023-04-02T18:55:51.651Z,14.68
2023-04-02T18:59:14.565Z,14.55
2023-04-02T19:02:37.911Z,14.56
2023-04-02T19:06:03.349Z,14.60
2023-04-02T19:09:13.022Z,14.56
2023-04-02T19:12:20.196Z,14.60
2023-04-02T19:15:26.383Z,14.63
2023-04-02T19:19:10.358Z,14.80
2023-04-02T19:22:51.465Z,14.83
2023-04-02T19:26:09.570Z,14.77
2023-04-02T19:29:11.056Z,14.82
2023-04-02T19:32:27.442Z,14.85
2023-04-02T19:35:53.821Z,14.85
2023-04-02T19:39:20.938Z,14.88
2023-04-02T19:42:37.257Z,14.89
2023-04-02T19:45:41.663Z,14.86
2023-04-02T19:49:19.781Z,14.84
2023-04-02T19:52:21.462Z,14.82
2023-04-02T19:55:23.166Z,14.85
2023-04-02T19:58:27.644Z,14.87
2023-04-02T20:01:29.286Z,14.95
2023-04-02T20:04:30.850Z,14.96
2023-04-02T20:07:32.406Z,14.97
2023-04-02T20:10:34.992Z,14.97
2023-04-02T20:13:37.026Z,14.92
2023-04-02T20:16:38.678Z,14.86
2023-04-02T20:19:40.700Z,14.89
2023-04-02T20:22:42.186Z,14.91
2023-04-02T20:25:54.948Z,14.92
2023-04-02T20:28:56.457Z,14.96
2023-04-02T20:31:57.880Z,14.96
2023-04-02T20:34:59.437Z,14.98
2023-04-02T20:38:03.049Z,14.98
2023-04-02T20:41:07.197Z,15.01
2023-04-02T20:44:08.586Z,15.09
2023-04-02T20:47:10.976Z,15.08
2023-04-02T20:50:12.621Z,15.07
2023-04-02T20:53:14.167Z,15.04
2023-04-02T20:56:17.315Z,14.98
2023-04-02T20:59:19.081Z,14.92
2023-04-02T21:02:20.839Z,14.86
2023-04-02T21:05:22.302Z,14.88
2023-04-02T21:08:24.262Z,14.91
2023-04-02T21:11:26.231Z,14.90
2023-04-02T21:14:27.746Z,14.89
2023-04-02T21:17:29.328Z,14.95
2023-04-02T21:20:31.940Z,15.00
2023-04-02T21:23:34.198Z,14.91
2023-04-02T21:26:40.284Z,14.94
2023-04-02T21:29:41.759Z,14.97
2023-04-02T21:32:43.315Z,15.00
2023-04-02T21:35:44.757Z,14.96
2023-04-02T21:38:51.664Z,14.99
2023-04-02T21:41:53.607Z,14.98
2023-04-02T21:44:55.954Z,15.00
2023-04-02T21:47:57.470Z,14.99
2023-04-02T21:51:20.409Z,14.98
2023-04-02T21:54:22.235Z,15.02
2023-04-02T21:57:23.798Z,14.96
2023-04-02T22:00:26.415Z,14.91
2023-04-02T22:03:31.915Z,14.90
2023-04-02T22:06:39.007Z,14.86
2023-04-02T22:09:40.589Z,14.60
2023-04-02T22:12:42.158Z,14.44
2023-04-02T22:15:43.588Z,14.28
2023-04-02T22:18:45.721Z,14.11
2023-04-02T22:21:47.647Z,14.13
2023-04-02T22:24:49.145Z,14.10
2023-04-02T22:27:52.001Z,14.26
2023-04-02T22:30:54.975Z,14.29
2023-04-02T22:33:57.891Z,14.31
2023-04-02T22:36:59.424Z,14.25
2023-04-02T22:40:01.162Z,14.14
2023-04-02T22:43:02.709Z,14.09
2023-04-02T22:46:06.087Z,14.08
2023-04-02T22:49:07.611Z,14.18
2023-04-02T22:52:09.133Z,14.04
2023-04-02T22:55:15.104Z,13.93
2023-04-02T22:58:16.569Z,13.84
2023-04-02T23:01:27.817Z,13.82
2023-04-02T23:04:29.337Z,13.79
2023-04-02T23:07:31.189Z,13.65
2023-04-02T23:10:32.854Z,13.59
2023-04-02T23:13:35.652Z,13.58
2023-04-02T23:16:37.126Z,13.50
2023-04-02T23:19:38.734Z,13.54
2023-04-02T23:22:40.191Z,13.63
2023-04-02T23:25:41.659Z,13.68
2023-04-02T23:28:43.892Z,13.65
2023-04-02T23:31:45.692Z,13.44
2023-04-02T23:34:47.135Z,13.39
2023-04-02T23:37:49.245Z,13.33
2023-04-02T23:40:50.922Z,13.21
2023-04-02T23:43:53.020Z,13.08
2023-04-02T23:46:54.650Z,12.97
2023-04-02T23:49:56.249Z,12.86
2023-04-02T23:52:57.678Z,12.80
2023-04-02T23:55:59.754Z,12.69
2023-04-02T23:59:01.236Z,12.54
